Grand Forks International Airport
KGFK : rendu visible

Aérodrome :











RETROUVEZ-NOUS SUR...

 
LOGIN :

S'inscrire | Disclaimer

   EN    FR    IT 

 









Légende :    VFR   VFR Marginal   IFR   IFR Intensif   IFR Très Intensif
Visi : 
Plafond : 
>= 8 km
>= 3000ft
5 à 8 km
1000 à 3000 ft
1500m à 5 km
500 à 1000 ft
800 à 1500m
200 à 500 ft
< 800m
< 200 ft
Symboles :   Orages  Brouillard  Fortes neiges  Fortes précipitations  Vent > 20 kt







- Altitude de l'aérodrome : 845 ft
- Code IATA : GFK


KGFK - Grand Forks International

DERNIER METAR :
  • 240553Z 09006KT 10SM CLR 08/06 A3007 RMK AO2 SLP188 T00830056 10183 20078 402000078 58007

METARs EXPIRÉS :
  • 240453Z 12004KT 10SM CLR 09/07 A3009 RMK AO2 SLP195 T00940072
  • 240430Z 12003KT 10SM FEW060 09/07 A3009 RMK AO2 LAST T00890067
  • 240353Z 13003KT 10SM FEW060 11/07 A3009 RMK AO2 SLP195 T01060072

TAF KGFK
Valide du 24 à 06h jusqu'au 25 à 06h UTC


240520Z 2406/2506 13006KT P6SM SCT060
FM241000 13009KT P6SM BKN035
FM241200 12010KT P6SM VCSH OVC020
FM241600 12013KT 5SM -SHRA BR OVC009
FM242200 15010KT P6SM VCSH BKN015
FIR KZMP / Amérique du Nord



MET'MAP, la Météo Aéronautique d'un coup d'oeil ! - Copyright ORBIFLY Décembre 2007 - Disclaimer

ORBIFLY MET'MAP TEAM :

Programmation & Développement : Alexandra Zaïnal
Conception & Développement : Baudouin d'Aumeries
Co-Programmation & Développement : Marc-Olivier Méhu
Soutien technique & logistique : Manuel Goepfert

Contact : metmap@orbifly.com




SOURCES & CREDITS :

   NOAA       Earth
Advisory